createdAt,value
2019-01-04T00:01:43.535Z,-2.63
2019-01-04T00:04:16.672Z,-2.69
2019-01-04T00:06:45.167Z,-2.81
2019-01-04T00:09:13.348Z,-2.75
2019-01-04T00:11:41.542Z,-2.74
2019-01-04T00:14:09.038Z,-2.69
2019-01-04T00:16:36.519Z,-2.69
2019-01-04T00:19:05.112Z,-2.62
2019-01-04T00:21:33.339Z,-2.58
2019-01-04T00:24:01.168Z,-2.60
2019-01-04T00:26:28.913Z,-2.59
2019-01-04T00:28:57.243Z,-2.60
2019-01-04T00:31:25.844Z,-2.53
2019-01-04T00:33:54.323Z,-2.58
2019-01-04T00:36:22.729Z,-2.63
2019-01-04T00:38:50.588Z,-2.64
2019-01-04T00:41:18.723Z,-2.68
2019-01-04T00:43:47.158Z,-2.70
2019-01-04T00:46:15.246Z,-2.77
2019-01-04T00:48:43.806Z,-2.85
2019-01-04T00:51:11.912Z,-2.86
2019-01-04T00:53:39.649Z,-2.94
2019-01-04T00:56:33.423Z,-3.00
2019-01-04T00:59:39.684Z,-2.94
2019-01-04T01:02:45.924Z,-2.88
2019-01-04T01:05:52.616Z,-2.88
2019-01-04T01:08:59.151Z,-2.88
2019-01-04T01:12:07.591Z,-2.82
2019-01-04T01:15:13.878Z,-2.78
2019-01-04T01:18:20.541Z,-2.76
2019-01-04T01:21:27.107Z,-2.80
2019-01-04T01:24:33.633Z,-2.87
2019-01-04T01:27:39.838Z,-2.92
2019-01-04T01:30:46.374Z,-3.03
2019-01-04T01:33:52.887Z,-3.17
2019-01-04T01:36:59.420Z,-3.27
2019-01-04T01:40:05.946Z,-3.08
2019-01-04T01:43:12.151Z,-3.26
2019-01-04T01:46:33.683Z,-3.51
2019-01-04T01:49:39.657Z,-3.64
2019-01-04T01:52:14.944Z,-3.74
2019-01-04T01:54:42.707Z,-3.82
2019-01-04T01:57:10.888Z,-3.96
2019-01-04T01:59:39.073Z,-4.00
2019-01-04T02:02:07.525Z,-4.04
2019-01-04T02:04:35.968Z,-4.09
2019-01-04T02:07:04.004Z,-4.17
2019-01-04T02:09:32.266Z,-4.21
2019-01-04T02:12:00.373Z,-4.26
2019-01-04T02:14:28.517Z,-4.27
2019-01-04T02:16:56.636Z,-4.19
2019-01-04T02:19:24.408Z,-4.15
2019-01-04T02:21:52.096Z,-4.17
2019-01-04T02:24:20.232Z,-4.22
2019-01-04T02:26:48.893Z,-4.23
2019-01-04T02:29:17.436Z,-4.27
2019-01-04T02:31:45.544Z,-4.35
2019-01-04T02:34:13.648Z,-4.41
2019-01-04T02:36:41.453Z,-4.39
2019-01-04T02:39:09.929Z,-4.34
2019-01-04T02:41:38.117Z,-4.25
2019-01-04T02:44:06.547Z,-4.12
2019-01-04T02:46:34.564Z,-4.06
2019-01-04T02:49:02.363Z,-4.04
2019-01-04T02:51:30.833Z,-4.01
2019-01-04T02:53:59.015Z,-3.99
2019-01-04T02:56:27.232Z,-3.89
2019-01-04T02:58:55.366Z,-3.82
2019-01-04T03:01:23.878Z,-3.84
2019-01-04T03:03:52.107Z,-3.90
2019-01-04T03:06:20.155Z,-3.96
2019-01-04T03:08:48.511Z,-4.03
2019-01-04T03:11:16.198Z,-3.85
2019-01-04T03:13:44.254Z,-3.90
2019-01-04T03:16:12.428Z,-3.94
2019-01-04T03:18:40.913Z,-4.02
2019-01-04T03:21:08.927Z,-4.08
2019-01-04T03:23:36.974Z,-4.13
2019-01-04T03:26:05.241Z,-4.10
2019-01-04T03:28:33.317Z,-4.07
2019-01-04T03:31:01.561Z,-4.00
2019-01-04T03:33:29.705Z,-3.95
2019-01-04T03:35:57.869Z,-3.85
2019-01-04T03:38:26.448Z,-3.82
2019-01-04T03:40:54.634Z,-3.76
2019-01-04T03:43:23.048Z,-3.63
2019-01-04T03:45:50.781Z,-3.55
2019-01-04T03:48:19.263Z,-3.39
2019-01-04T03:50:47.398Z,-3.30
2019-01-04T03:53:15.543Z,-3.30
2019-01-04T03:55:43.378Z,-3.29
2019-01-04T03:58:11.087Z,-3.18
2019-01-04T04:00:39.302Z,-3.09
2019-01-04T04:03:07.440Z,-3.03
2019-01-04T04:05:35.567Z,-2.95
2019-01-04T04:08:03.889Z,-2.86
2019-01-04T04:10:32.284Z,-2.87
2019-01-04T04:13:00.881Z,-2.78
2019-01-04T04:15:29.052Z,-2.77
2019-01-04T04:17:57.467Z,-2.77
2019-01-04T04:20:25.607Z,-2.81
2019-01-04T04:22:53.705Z,-2.85
2019-01-04T04:25:21.946Z,-2.86
2019-01-04T04:27:50.053Z,-2.77
2019-01-04T04:30:18.129Z,-2.70
2019-01-04T04:32:46.294Z,-2.67
2019-01-04T04:35:14.420Z,-2.53
2019-01-04T04:37:42.767Z,-2.57
2019-01-04T04:40:11.249Z,-2.60
2019-01-04T04:42:39.763Z,-2.63
2019-01-04T04:45:08.229Z,-2.59
2019-01-04T04:47:36.720Z,-2.52
2019-01-04T04:50:05.007Z,-2.51
2019-01-04T04:52:33.092Z,-2.46
2019-01-04T04:55:01.660Z,-2.38
2019-01-04T04:57:30.155Z,-2.36
2019-01-04T04:59:58.629Z,-2.29
2019-01-04T05:02:27.238Z,-2.27
2019-01-04T05:04:55.712Z,-2.32
2019-01-04T05:07:24.130Z,-2.29
2019-01-04T05:13:00.612Z,-2.32
2019-01-04T05:15:29.109Z,-2.32
2019-01-04T05:17:57.292Z,-2.30
2019-01-04T05:20:25.106Z,-2.31
2019-01-04T05:22:53.078Z,-2.19
2019-01-04T05:25:21.672Z,-2.18
2019-01-04T05:27:49.854Z,-2.22
2019-01-04T05:30:18.019Z,-2.21
2019-01-04T05:32:46.209Z,-2.31
2019-01-04T05:35:14.393Z,-2.29
2019-01-04T05:37:42.257Z,-2.32
2019-01-04T05:40:10.757Z,-2.36
2019-01-04T05:42:38.887Z,-2.47
2019-01-04T05:45:06.008Z,-2.37
2019-01-04T05:47:34.159Z,-2.40
2019-01-04T05:50:02.653Z,-2.41
2019-01-04T05:52:31.260Z,-2.53
2019-01-04T05:54:59.824Z,-2.55
2019-01-04T05:57:27.990Z,-2.45
2019-01-04T05:59:56.194Z,-2.52
2019-01-04T06:02:24.274Z,-2.52
2019-01-04T06:04:52.454Z,-2.52
2019-01-04T06:07:20.212Z,-2.32
2019-01-04T06:09:48.294Z,-2.29
2019-01-04T06:12:16.917Z,-2.32
2019-01-04T06:14:45.084Z,-2.39
2019-01-04T06:17:13.639Z,-2.34
2019-01-04T06:19:41.812Z,-2.28
2019-01-04T06:22:09.898Z,-2.43
2019-01-04T06:24:38.384Z,-2.50
2019-01-04T06:27:06.829Z,-2.35
2019-01-04T06:29:35.067Z,-2.42
2019-01-04T06:32:03.666Z,-2.45
2019-01-04T06:34:31.864Z,-2.42
2019-01-04T06:36:59.913Z,-2.48
2019-01-04T06:39:27.986Z,-2.49
2019-01-04T06:41:56.104Z,-2.47
2019-01-04T06:44:23.900Z,-2.47
2019-01-04T06:47:30.109Z,-2.46
2019-01-04T06:49:57.877Z,-2.44
2019-01-04T06:52:26.233Z,-2.41
2019-01-04T06:55:32.763Z,-2.40
2019-01-04T06:58:00.967Z,-2.41
2019-01-04T07:00:29.172Z,-2.41
2019-01-04T07:02:56.923Z,-2.30
2019-01-04T07:05:24.989Z,-2.32
2019-01-04T07:07:53.512Z,-2.36
2019-01-04T07:10:21.716Z,-2.39
2019-01-04T07:12:49.842Z,-2.39
2019-01-04T07:15:17.920Z,-2.39
2019-01-04T07:17:45.432Z,-2.38
2019-01-04T07:20:13.542Z,-2.30
2019-01-04T07:22:42.060Z,-2.30
2019-01-04T07:25:10.465Z,-2.08
2019-01-04T07:27:37.868Z,-2.14
2019-01-04T07:30:06.513Z,-2.22
2019-01-04T07:32:35.003Z,-2.27
2019-01-04T07:35:03.151Z,-2.30
2019-01-04T07:37:31.654Z,-2.36
2019-01-04T07:40:00.014Z,-2.19
2019-01-04T07:42:28.170Z,-2.19
2019-01-04T07:44:55.903Z,-2.23
2019-01-04T07:47:23.984Z,-2.19
2019-01-04T07:49:51.719Z,-2.17
2019-01-04T07:52:19.544Z,-2.15
2019-01-04T07:54:47.663Z,-2.13
2019-01-04T07:57:15.391Z,-2.09
2019-01-04T07:59:43.624Z,-2.08
2019-01-04T08:02:34.523Z,-2.09
2019-01-04T08:05:03.074Z,-2.06
2019-01-04T08:07:31.190Z,-1.88
2019-01-04T08:09:59.256Z,-1.91
2019-01-04T08:12:27.768Z,-1.95
2019-01-04T08:14:55.945Z,-1.92
2019-01-04T08:17:24.622Z,-2.01
2019-01-04T08:19:52.774Z,-1.99
2019-01-04T08:22:20.870Z,-1.94
2019-01-04T08:24:49.065Z,-1.86
2019-01-04T08:27:17.538Z,-1.77
2019-01-04T08:29:45.738Z,-1.77
2019-01-04T08:32:14.329Z,-1.84
2019-01-04T08:34:42.284Z,-1.89
2019-01-04T08:37:10.600Z,-1.81
2019-01-04T08:39:38.805Z,-1.83
2019-01-04T08:42:07.477Z,-1.81
2019-01-04T08:44:35.514Z,-1.83
2019-01-04T08:47:03.553Z,-1.80
2019-01-04T08:49:31.768Z,-1.78
2019-01-04T08:51:59.654Z,-1.64
2019-01-04T08:54:27.487Z,-1.61
2019-01-04T08:56:55.603Z,-1.46
2019-01-04T08:59:23.771Z,-1.24
2019-01-04T09:01:51.876Z,-1.07
2019-01-04T09:04:20.039Z,-0.98
2019-01-04T09:06:48.394Z,-0.78
2019-01-04T09:09:16.588Z,-0.66
2019-01-04T09:11:44.391Z,-0.51
2019-01-04T09:14:11.768Z,-0.60
2019-01-04T09:16:40.008Z,-0.59
2019-01-04T09:19:08.174Z,-0.64
2019-01-04T09:21:36.318Z,-0.58
2019-01-04T09:24:04.908Z,-0.49
2019-01-04T09:26:33.455Z,-0.42
2019-01-04T09:29:02.015Z,-0.56
2019-01-04T09:31:29.884Z,-0.79
2019-01-04T09:33:57.980Z,-1.04
2019-01-04T09:36:26.220Z,-1.01
2019-01-04T09:38:54.453Z,-0.96
2019-01-04T09:42:00.974Z,-0.93
2019-01-04T09:44:29.109Z,-0.74
2019-01-04T09:46:57.261Z,-0.66
2019-01-04T09:49:25.293Z,-0.63
2019-01-04T09:51:53.424Z,-0.51
2019-01-04T09:54:21.574Z,-0.39
2019-01-04T09:56:49.783Z,-0.25
2019-01-04T09:59:17.839Z,-0.09
2019-01-04T10:01:45.956Z,-0.27
2019-01-04T10:04:14.169Z,-0.29
2019-01-04T10:06:42.428Z,-0.25
2019-01-04T10:09:10.179Z,-0.20
2019-01-04T10:11:38.443Z,-0.15
2019-01-04T10:14:06.609Z,-0.14
2019-01-04T10:16:34.705Z,-0.19
2019-01-04T10:19:03.179Z,-0.11
2019-01-04T10:21:31.694Z,0.18
2019-01-04T10:24:00.143Z,0.31
2019-01-04T10:26:27.998Z,0.41
2019-01-04T10:28:56.172Z,0.46
2019-01-04T10:31:24.302Z,0.41
2019-01-04T10:33:52.435Z,0.50
2019-01-04T10:36:20.948Z,0.57
2019-01-04T10:38:49.089Z,0.61
2019-01-04T10:41:17.408Z,0.56
2019-01-04T10:43:45.197Z,0.48
2019-01-04T10:46:13.609Z,0.38
2019-01-04T10:48:41.745Z,0.42
2019-01-04T10:51:09.926Z,0.42
2019-01-04T10:53:37.634Z,0.48
2019-01-04T10:56:06.063Z,0.58
2019-01-04T10:58:34.254Z,0.53
2019-01-04T11:01:02.729Z,0.27
2019-01-04T11:03:31.224Z,0.17
2019-01-04T11:05:59.004Z,0.16
2019-01-04T11:08:27.051Z,0.15
2019-01-04T11:10:54.841Z,0.19
2019-01-04T11:13:23.341Z,0.30
2019-01-04T11:15:51.488Z,0.42
2019-01-04T11:18:19.273Z,0.48
2019-01-04T11:20:48.782Z,0.64
2019-01-04T11:23:55.180Z,0.70
2019-01-04T11:26:33.452Z,0.58
2019-01-04T11:29:39.345Z,0.57
2019-01-04T11:32:22.736Z,0.48
2019-01-04T11:35:29.285Z,0.31
2019-01-04T11:38:35.824Z,0.24
2019-01-04T11:41:31.023Z,0.28
2019-01-04T11:44:21.612Z,0.36
2019-01-04T11:47:12.438Z,0.52
2019-01-04T11:50:19.064Z,0.64
2019-01-04T11:52:52.266Z,0.59
2019-01-04T11:55:20.730Z,0.38
2019-01-04T11:57:48.820Z,0.39
2019-01-04T12:00:16.932Z,0.40
2019-01-04T12:02:45.093Z,0.32
2019-01-04T12:05:34.082Z,0.41
2019-01-04T12:08:02.214Z,0.33
2019-01-04T12:10:30.344Z,0.29
2019-01-04T12:12:58.059Z,0.42
2019-01-04T12:15:26.521Z,0.53
2019-01-04T12:17:54.725Z,0.63
2019-01-04T12:20:22.810Z,0.86
2019-01-04T12:22:51.236Z,1.06
2019-01-04T12:25:19.018Z,1.02
2019-01-04T12:27:47.214Z,0.86
2019-01-04T12:30:15.354Z,0.54
2019-01-04T12:32:43.119Z,0.49
2019-01-04T12:35:11.641Z,0.36
2019-01-04T12:37:39.851Z,0.15
2019-01-04T12:40:08.571Z,-0.01
2019-01-04T12:42:36.825Z,-0.13
2019-01-04T12:45:05.008Z,0.01
2019-01-04T12:47:33.624Z,0.05
2019-01-04T12:50:01.424Z,0.02
2019-01-04T12:52:29.907Z,0.10
2019-01-04T12:54:58.371Z,0.09
2019-01-04T12:57:26.869Z,0.04
2019-01-04T12:59:54.696Z,0.05
2019-01-04T13:02:22.379Z,-0.01
2019-01-04T13:04:50.497Z,-0.18
2019-01-04T13:07:18.323Z,-0.16
2019-01-04T13:09:46.699Z,-0.27
2019-01-04T13:12:14.874Z,-0.27
2019-01-04T13:14:43.173Z,-0.21
2019-01-04T13:17:11.456Z,-0.16
2019-01-04T13:19:39.585Z,-0.22
2019-01-04T13:22:08.124Z,-0.12
2019-01-04T13:24:35.901Z,-0.25
2019-01-04T13:27:04.089Z,-0.14
2019-01-04T13:29:31.835Z,-0.26
2019-01-04T13:32:00.037Z,-0.23
2019-01-04T13:34:28.105Z,-0.29
2019-01-04T13:36:56.631Z,-0.44
2019-01-04T13:39:25.094Z,-0.52
2019-01-04T13:41:53.351Z,-0.43
2019-01-04T13:44:21.425Z,-0.44
2019-01-04T13:46:49.698Z,-0.43
2019-01-04T13:49:17.858Z,-0.42
2019-01-04T13:51:46.161Z,-0.47
2019-01-04T13:54:14.394Z,-0.41
2019-01-04T13:56:42.495Z,-0.47
2019-01-04T13:59:10.875Z,-0.47
2019-01-04T14:01:39.444Z,-0.36
2019-01-04T14:04:07.571Z,-0.55
2019-01-04T14:06:36.151Z,-0.60
2019-01-04T14:09:44.299Z,-0.70
2019-01-04T14:12:12.855Z,-0.77
2019-01-04T14:14:41.118Z,-0.78
2019-01-04T14:17:09.610Z,-0.81
2019-01-04T14:19:38.114Z,-0.80
2019-01-04T14:22:06.541Z,-0.76
2019-01-04T14:24:35.145Z,-0.80
2019-01-04T14:27:03.800Z,-0.83
2019-01-04T14:29:32.261Z,-0.88
2019-01-04T14:32:00.366Z,-0.99
2019-01-04T14:34:28.212Z,-1.05
2019-01-04T14:36:56.708Z,-1.01
2019-01-04T14:39:24.179Z,-1.04
2019-01-04T14:41:52.456Z,-1.10
2019-01-04T14:44:20.625Z,-1.13
2019-01-04T14:46:49.205Z,-1.17
2019-01-04T14:49:17.261Z,-1.18
2019-01-04T14:51:45.052Z,-1.32
2019-01-04T14:54:12.911Z,-1.43
2019-01-04T14:56:41.254Z,-1.32
2019-01-04T14:59:09.376Z,-1.38
2019-01-04T15:01:37.157Z,-1.47
2019-01-04T15:04:05.651Z,-1.42
2019-01-04T15:06:33.821Z,-1.43
2019-01-04T15:09:02.556Z,-1.41
2019-01-04T15:11:29.961Z,-1.46
2019-01-04T15:13:58.152Z,-1.49
2019-01-04T15:16:26.330Z,-1.55
2019-01-04T15:18:54.521Z,-1.60
2019-01-04T15:21:22.793Z,-1.57
2019-01-04T15:23:51.303Z,-1.70
2019-01-04T15:26:19.442Z,-1.71
2019-01-04T15:28:47.645Z,-1.84
2019-01-04T15:31:16.098Z,-1.94
2019-01-04T15:33:44.338Z,-1.93
2019-01-04T15:36:12.860Z,-2.04
2019-01-04T15:38:40.671Z,-2.10
2019-01-04T15:41:08.833Z,-2.00
2019-01-04T15:43:37.416Z,-2.00
2019-01-04T15:46:06.020Z,-2.04
2019-01-04T15:48:34.334Z,-2.07
2019-01-04T15:51:02.145Z,-2.05
2019-01-04T15:53:30.585Z,-2.07
2019-01-04T15:55:59.154Z,-2.15
2019-01-04T15:58:26.936Z,-2.12
2019-01-04T16:00:55.386Z,-2.17
2019-01-04T16:03:23.939Z,-2.22
2019-01-04T16:05:52.449Z,-2.24
2019-01-04T16:08:20.750Z,-2.28
2019-01-04T16:10:49.281Z,-2.28
2019-01-04T16:13:17.446Z,-2.23
2019-01-04T16:15:45.724Z,-2.24
2019-01-04T16:18:14.085Z,-2.27
2019-01-04T16:20:42.315Z,-2.30
2019-01-04T16:23:10.536Z,-2.36
2019-01-04T16:25:37.926Z,-2.35
2019-01-04T16:28:06.109Z,-2.31
2019-01-04T16:30:34.614Z,-2.29
2019-01-04T16:33:03.091Z,-2.32
2019-01-04T16:35:31.893Z,-2.24
2019-01-04T16:38:00.014Z,-2.25
2019-01-04T16:40:28.390Z,-2.29
2019-01-04T16:42:56.710Z,-2.31
2019-01-04T16:45:25.216Z,-2.29
2019-01-04T16:50:28.905Z,-2.27
2019-01-04T16:52:59.539Z,-2.23
2019-01-04T16:58:00.538Z,-2.31
2019-01-04T17:00:28.715Z,-2.32
2019-01-04T17:02:57.224Z,-2.33
2019-01-04T17:05:25.561Z,-2.33
2019-01-04T17:07:53.667Z,-2.18
2019-01-04T17:10:21.944Z,-2.13
2019-01-04T17:12:49.810Z,-2.22
2019-01-04T17:15:17.694Z,-2.25
2019-01-04T17:17:45.411Z,-2.28
2019-01-04T17:20:13.642Z,-2.19
2019-01-04T17:22:41.751Z,-2.28
2019-01-04T17:25:10.250Z,-2.35
2019-01-04T17:27:38.470Z,-2.36
2019-01-04T17:30:07.809Z,-2.27
2019-01-04T17:32:35.971Z,-2.35
2019-01-04T17:35:45.173Z,-2.37
2019-01-04T17:38:13.425Z,-2.31
2019-01-04T17:40:41.963Z,-2.24
2019-01-04T17:43:10.143Z,-2.22
2019-01-04T17:45:38.791Z,-2.08
2019-01-04T17:48:07.440Z,-2.11
2019-01-04T17:50:36.006Z,-2.07
2019-01-04T17:53:04.509Z,-2.00
2019-01-04T17:55:32.238Z,-2.01
2019-01-04T17:58:00.359Z,-1.83
2019-01-04T18:00:27.780Z,-1.84
2019-01-04T18:03:00.825Z,-1.79
2019-01-04T18:05:26.037Z,-1.83
2019-01-04T18:07:53.997Z,-1.81
2019-01-04T18:10:22.408Z,-1.80
2019-01-04T18:12:51.052Z,-1.76
2019-01-04T18:15:19.351Z,-1.76
2019-01-04T18:17:48.263Z,-1.78
2019-01-04T18:20:18.862Z,-1.76
2019-01-04T18:23:06.195Z,-1.73
2019-01-04T18:25:34.087Z,-1.76
2019-01-04T18:28:02.233Z,-1.78
2019-01-04T18:30:30.373Z,-1.71
2019-01-04T18:32:58.684Z,-1.73
2019-01-04T18:35:27.388Z,-1.83
2019-01-04T18:37:56.053Z,-1.77
2019-01-04T18:40:24.146Z,-1.77
2019-01-04T18:42:59.343Z,-1.83
2019-01-04T18:45:27.590Z,-1.76
2019-01-04T18:47:55.772Z,-1.84
2019-01-04T18:50:24.334Z,-1.88
2019-01-04T18:52:52.990Z,-1.88
2019-01-04T18:55:21.310Z,-1.85
2019-01-04T18:57:49.916Z,-1.91
2019-01-04T19:00:18.606Z,-1.92
2019-01-04T19:02:47.214Z,-1.90
2019-01-04T19:05:15.366Z,-1.85
2019-01-04T19:07:43.948Z,-1.91
2019-01-04T19:10:12.196Z,-1.90
2019-01-04T19:12:40.779Z,-1.90
2019-01-04T19:15:09.301Z,-1.94
2019-01-04T19:17:37.830Z,-1.88
2019-01-04T19:20:46.138Z,-1.88
2019-01-04T19:23:14.292Z,-1.90
2019-01-04T19:25:42.249Z,-1.93
2019-01-04T19:28:10.031Z,-2.00
2019-01-04T19:30:37.796Z,-2.06
2019-01-04T19:33:06.033Z,-2.02
2019-01-04T19:35:34.728Z,-2.03
2019-01-04T19:38:02.502Z,-2.05
2019-01-04T19:40:30.472Z,-2.05
2019-01-04T19:42:58.696Z,-2.06
2019-01-04T19:45:26.952Z,-2.01
2019-01-04T19:47:55.043Z,-2.09
2019-01-04T19:50:23.761Z,-2.14
2019-01-04T19:52:51.925Z,-2.16
2019-01-04T19:55:19.794Z,-2.12
2019-01-04T19:57:48.234Z,-2.16
2019-01-04T20:00:16.885Z,-2.14
2019-01-04T20:02:44.756Z,-2.07
2019-01-04T20:12:29.603Z,-2.01
2019-01-04T20:15:55.587Z,-2.07
2019-01-04T20:18:45.345Z,-2.03
2019-01-04T20:21:32.256Z,-2.05
2019-01-04T20:24:12.861Z,-2.05
2019-01-04T20:27:00.143Z,-1.98
2019-01-04T20:29:47.060Z,-1.95
2019-01-04T20:32:33.945Z,-1.99
2019-01-04T20:35:21.701Z,-1.95
2019-01-04T20:38:09.116Z,-1.93
2019-01-04T20:40:56.920Z,-1.92
2019-01-04T20:43:44.340Z,-1.93
2019-01-04T20:46:31.679Z,-1.89
2019-01-04T20:49:19.017Z,-1.85
2019-01-04T20:52:06.801Z,-1.87
2019-01-04T20:54:53.463Z,-1.82
2019-01-04T20:57:41.982Z,-1.77
2019-01-04T21:00:50.582Z,-1.78
2019-01-04T21:03:37.838Z,-1.74
2019-01-04T21:06:25.415Z,-1.71
2019-01-04T21:09:12.800Z,-1.73
2019-01-04T21:11:59.765Z,-1.72
2019-01-04T21:14:47.265Z,-1.70
2019-01-04T21:17:34.953Z,-1.69
2019-01-04T21:20:22.364Z,-1.71
2019-01-04T21:23:09.700Z,-1.69
2019-01-04T21:25:49.059Z,-1.75
2019-01-04T21:28:36.737Z,-1.73
2019-01-04T21:31:24.513Z,-1.70
2019-01-04T21:34:12.074Z,-1.76
2019-01-04T21:36:59.461Z,-1.76
2019-01-04T21:39:47.229Z,-1.75
2019-01-04T21:42:34.586Z,-1.69
2019-01-04T21:45:22.093Z,-1.66
2019-01-04T21:48:09.385Z,-1.67
2019-01-04T21:50:57.082Z,-1.67
2019-01-04T21:53:39.212Z,-1.67
2019-01-04T21:56:26.840Z,-1.70
2019-01-04T21:59:14.201Z,-1.75
2019-01-04T22:02:02.377Z,-1.73
2019-01-04T22:04:50.151Z,-1.74
2019-01-04T22:07:37.916Z,-1.78
2019-01-04T22:10:25.058Z,-1.75
2019-01-04T22:13:12.791Z,-1.75
2019-01-04T22:16:00.097Z,-1.74
2019-01-04T22:18:47.491Z,-1.74
2019-01-04T22:21:34.785Z,-1.71
2019-01-04T22:24:22.195Z,-1.73
2019-01-04T22:27:09.872Z,-1.72
2019-01-04T22:29:57.631Z,-1.73
2019-01-04T22:32:45.346Z,-1.77
2019-01-04T22:35:33.665Z,-1.73
2019-01-04T22:38:21.252Z,-1.75
2019-01-04T22:41:11.521Z,-1.77
2019-01-04T22:43:58.831Z,-1.74
2019-01-04T22:46:46.673Z,-1.73
2019-01-04T22:49:34.359Z,-1.77
2019-01-04T22:52:22.092Z,-1.74
2019-01-04T22:55:09.521Z,-1.77
2019-01-04T22:57:57.231Z,-1.73
2019-01-04T23:01:06.475Z,-1.69
2019-01-04T23:03:54.146Z,-1.75
2019-01-04T23:06:41.888Z,-1.70
2019-01-04T23:09:29.445Z,-1.73
2019-01-04T23:12:17.127Z,-1.76
2019-01-04T23:15:04.518Z,-1.71
2019-01-04T23:17:51.831Z,-1.72
2019-01-04T23:20:39.156Z,-1.68
2019-01-04T23:23:26.988Z,-1.71
2019-01-04T23:26:19.453Z,-1.70
2019-01-04T23:29:03.967Z,-1.64
2019-01-04T23:31:51.587Z,-1.65
2019-01-04T23:34:39.324Z,-1.60
2019-01-04T23:37:26.652Z,-1.63
2019-01-04T23:40:14.226Z,-1.59
2019-01-04T23:43:01.802Z,-1.55
2019-01-04T23:46:10.273Z,-1.56
2019-01-04T23:48:45.740Z,-1.60
2019-01-04T23:51:32.346Z,-1.58
2019-01-04T23:54:19.648Z,-1.60
2019-01-04T23:57:07.241Z,-1.53
2019-01-04T23:59:54.517Z,-1.51
